sensor_id;sensor_type;location;lat;lon;timestamp;pressure;altitude;pressure_sealevel;temperature
10598;BMP180;5346;48.766;8.674;2023-03-09T00:00:07;91766.00;;;7.70
10598;BMP180;5346;48.766;8.674;2023-03-09T00:02:47;91780.00;;;7.70
10598;BMP180;5346;48.766;8.674;2023-03-09T00:05:29;91755.00;;;7.70
10598;BMP180;5346;48.766;8.674;2023-03-09T00:08:03;91793.00;;;7.60
10598;BMP180;5346;48.766;8.674;2023-03-09T00:10:41;91783.00;;;7.50
10598;BMP180;5346;48.766;8.674;2023-03-09T00:13:14;91773.00;;;7.50
10598;BMP180;5346;48.766;8.674;2023-03-09T00:15:50;91771.00;;;7.40
10598;BMP180;5346;48.766;8.674;2023-03-09T00:18:25;91775.00;;;7.30
10598;BMP180;5346;48.766;8.674;2023-03-09T00:20:58;91776.00;;;7.30
10598;BMP180;5346;48.766;8.674;2023-03-09T00:23:26;91781.00;;;7.30
10598;BMP180;5346;48.766;8.674;2023-03-09T00:26:05;91795.00;;;7.30
10598;BMP180;5346;48.766;8.674;2023-03-09T00:28:42;91811.00;;;7.10
10598;BMP180;5346;48.766;8.674;2023-03-09T00:31:15;91827.00;;;7.10
10598;BMP180;5346;48.766;8.674;2023-03-09T00:33:49;91837.00;;;7.10
10598;BMP180;5346;48.766;8.674;2023-03-09T00:36:23;91810.00;;;7.10
10598;BMP180;5346;48.766;8.674;2023-03-09T00:38:59;91811.00;;;7.00
10598;BMP180;5346;48.766;8.674;2023-03-09T00:41:40;91838.00;;;7.00
10598;BMP180;5346;48.766;8.674;2023-03-09T00:44:14;91815.00;;;7.00
10598;BMP180;5346;48.766;8.674;2023-03-09T00:46:48;91857.00;;;7.00
10598;BMP180;5346;48.766;8.674;2023-03-09T00:49:16;91828.00;;;6.90
10598;BMP180;5346;48.766;8.674;2023-03-09T00:51:50;91805.00;;;6.80
10598;BMP180;5346;48.766;8.674;2023-03-09T00:54:17;91800.00;;;6.60
10598;BMP180;5346;48.766;8.674;2023-03-09T00:56:47;91817.00;;;6.60
10598;BMP180;5346;48.766;8.674;2023-03-09T00:59:20;91800.00;;;6.50
10598;BMP180;5346;48.766;8.674;2023-03-09T01:01:54;91797.00;;;6.40
10598;BMP180;5346;48.766;8.674;2023-03-09T01:04:28;91805.00;;;6.40
10598;BMP180;5346;48.766;8.674;2023-03-09T01:07:09;91799.00;;;6.40
10598;BMP180;5346;48.766;8.674;2023-03-09T01:09:38;91793.00;;;6.40
10598;BMP180;5346;48.766;8.674;2023-03-09T01:12:11;91794.00;;;6.40
10598;BMP180;5346;48.766;8.674;2023-03-09T01:14:45;91793.00;;;6.50
10598;BMP180;5346;48.766;8.674;2023-03-09T01:17:14;91804.00;;;6.50
10598;BMP180;5346;48.766;8.674;2023-03-09T01:19:50;91787.00;;;6.50
10598;BMP180;5346;48.766;8.674;2023-03-09T01:22:17;91806.00;;;6.70
10598;BMP180;5346;48.766;8.674;2023-03-09T01:24:51;91824.00;;;6.70
10598;BMP180;5346;48.766;8.674;2023-03-09T01:27:26;91830.00;;;6.70
10598;BMP180;5346;48.766;8.674;2023-03-09T01:30:00;91828.00;;;6.70
10598;BMP180;5346;48.766;8.674;2023-03-09T01:32:33;91798.00;;;6.60
10598;BMP180;5346;48.766;8.674;2023-03-09T01:35:08;91797.00;;;6.60
10598;BMP180;5346;48.766;8.674;2023-03-09T01:37:42;91797.00;;;6.60
10598;BMP180;5346;48.766;8.674;2023-03-09T01:40:20;91793.00;;;6.50
10598;BMP180;5346;48.766;8.674;2023-03-09T01:43:00;91810.00;;;6.50
10598;BMP180;5346;48.766;8.674;2023-03-09T01:48:08;91812.00;;;6.40
10598;BMP180;5346;48.766;8.674;2023-03-09T01:50:42;91807.00;;;6.30
10598;BMP180;5346;48.766;8.674;2023-03-09T01:53:15;91800.00;;;6.20
10598;BMP180;5346;48.766;8.674;2023-03-09T01:55:52;91784.00;;;6.20
10598;BMP180;5346;48.766;8.674;2023-03-09T01:58:26;91790.00;;;6.20
10598;BMP180;5346;48.766;8.674;2023-03-09T02:01:01;91755.00;;;6.20
10598;BMP180;5346;48.766;8.674;2023-03-09T02:03:33;91762.00;;;6.30
10598;BMP180;5346;48.766;8.674;2023-03-09T02:06:18;91760.00;;;6.30
10598;BMP180;5346;48.766;8.674;2023-03-09T02:09:03;91758.00;;;6.40
10598;BMP180;5346;48.766;8.674;2023-03-09T02:11:40;91748.00;;;6.40
10598;BMP180;5346;48.766;8.674;2023-03-09T02:14:08;91719.00;;;6.40
10598;BMP180;5346;48.766;8.674;2023-03-09T02:16:36;91759.00;;;6.40
10598;BMP180;5346;48.766;8.674;2023-03-09T02:22:05;91742.00;;;6.40
10598;BMP180;5346;48.766;8.674;2023-03-09T02:27:34;91755.00;;;6.50
10598;BMP180;5346;48.766;8.674;2023-03-09T02:30:09;91752.00;;;6.50
10598;BMP180;5346;48.766;8.674;2023-03-09T02:32:36;91780.00;;;6.50
10598;BMP180;5346;48.766;8.674;2023-03-09T02:35:10;91734.00;;;6.50
10598;BMP180;5346;48.766;8.674;2023-03-09T02:37:44;91778.00;;;6.60
10598;BMP180;5346;48.766;8.674;2023-03-09T02:43:01;91800.00;;;6.50
10598;BMP180;5346;48.766;8.674;2023-03-09T02:45:31;91809.00;;;6.40
10598;BMP180;5346;48.766;8.674;2023-03-09T02:48:05;91825.00;;;6.50
10598;BMP180;5346;48.766;8.674;2023-03-09T02:50:39;91851.00;;;6.40
10598;BMP180;5346;48.766;8.674;2023-03-09T02:53:07;91874.00;;;6.30
10598;BMP180;5346;48.766;8.674;2023-03-09T02:55:41;91877.00;;;6.30
10598;BMP180;5346;48.766;8.674;2023-03-09T02:58:15;91857.00;;;6.30
10598;BMP180;5346;48.766;8.674;2023-03-09T03:00:49;91870.00;;;6.40
10598;BMP180;5346;48.766;8.674;2023-03-09T03:03:23;91893.00;;;6.40
10598;BMP180;5346;48.766;8.674;2023-03-09T03:05:51;91924.00;;;6.20
10598;BMP180;5346;48.766;8.674;2023-03-09T03:08:32;91939.00;;;6.10
10598;BMP180;5346;48.766;8.674;2023-03-09T03:11:03;91951.00;;;5.80
10598;BMP180;5346;48.766;8.674;2023-03-09T03:13:37;91956.00;;;5.80
10598;BMP180;5346;48.766;8.674;2023-03-09T03:16:11;91966.00;;;5.60
10598;BMP180;5346;48.766;8.674;2023-03-09T03:18:39;91978.00;;;5.60
10598;BMP180;5346;48.766;8.674;2023-03-09T03:21:13;91985.00;;;5.50
10598;BMP180;5346;48.766;8.674;2023-03-09T03:23:40;91966.00;;;5.50
10598;BMP180;5346;48.766;8.674;2023-03-09T03:26:14;91994.00;;;5.50
10598;BMP180;5346;48.766;8.674;2023-03-09T03:28:50;92014.00;;;5.40
10598;BMP180;5346;48.766;8.674;2023-03-09T03:31:23;92009.00;;;5.40
10598;BMP180;5346;48.766;8.674;2023-03-09T03:33:57;92034.00;;;5.50
10598;BMP180;5346;48.766;8.674;2023-03-09T03:36:31;92022.00;;;5.50
10598;BMP180;5346;48.766;8.674;2023-03-09T03:38:59;92037.00;;;5.50
10598;BMP180;5346;48.766;8.674;2023-03-09T03:41:32;92047.00;;;5.60
10598;BMP180;5346;48.766;8.674;2023-03-09T03:44:00;92050.00;;;5.50
10598;BMP180;5346;48.766;8.674;2023-03-09T03:46:33;92059.00;;;5.50
10598;BMP180;5346;48.766;8.674;2023-03-09T03:49:07;92060.00;;;5.60
10598;BMP180;5346;48.766;8.674;2023-03-09T03:51:41;92062.00;;;5.60
10598;BMP180;5346;48.766;8.674;2023-03-09T03:54:17;92064.00;;;5.60
10598;BMP180;5346;48.766;8.674;2023-03-09T03:56:53;92073.00;;;5.60
10598;BMP180;5346;48.766;8.674;2023-03-09T03:59:27;92058.00;;;5.60
10598;BMP180;5346;48.766;8.674;2023-03-09T04:02:01;92052.00;;;5.60
10598;BMP180;5346;48.766;8.674;2023-03-09T04:04:42;92071.00;;;5.50
10598;BMP180;5346;48.766;8.674;2023-03-09T04:07:23;92087.00;;;5.50
10598;BMP180;5346;48.766;8.674;2023-03-09T04:09:50;92063.00;;;5.60
10598;BMP180;5346;48.766;8.674;2023-03-09T04:12:25;92057.00;;;5.60
10598;BMP180;5346;48.766;8.674;2023-03-09T04:14:53;92073.00;;;5.50
10598;BMP180;5346;48.766;8.674;2023-03-09T04:17:27;92067.00;;;5.60
10598;BMP180;5346;48.766;8.674;2023-03-09T04:19:55;92091.00;;;5.50
10598;BMP180;5346;48.766;8.674;2023-03-09T04:22:29;92083.00;;;5.50
10598;BMP180;5346;48.766;8.674;2023-03-09T04:24:57;92083.00;;;5.60
10598;BMP180;5346;48.766;8.674;2023-03-09T04:27:31;92077.00;;;5.60
10598;BMP180;5346;48.766;8.674;2023-03-09T04:29:59;92061.00;;;5.60
10598;BMP180;5346;48.766;8.674;2023-03-09T04:32:33;92101.00;;;5.50
10598;BMP180;5346;48.766;8.674;2023-03-09T04:35:09;92087.00;;;5.40
10598;BMP180;5346;48.766;8.674;2023-03-09T04:37:43;92105.00;;;5.50
10598;BMP180;5346;48.766;8.674;2023-03-09T04:40:19;92109.00;;;5.50
10598;BMP180;5346;48.766;8.674;2023-03-09T04:42:54;92115.00;;;5.40
10598;BMP180;5346;48.766;8.674;2023-03-09T04:45:29;92132.00;;;5.40
10598;BMP180;5346;48.766;8.674;2023-03-09T04:47:57;92131.00;;;5.40
10598;BMP180;5346;48.766;8.674;2023-03-09T04:50:31;92121.00;;;5.50
10598;BMP180;5346;48.766;8.674;2023-03-09T04:52:59;92122.00;;;5.50
10598;BMP180;5346;48.766;8.674;2023-03-09T04:55:33;92116.00;;;5.40
10598;BMP180;5346;48.766;8.674;2023-03-09T04:58:03;92132.00;;;5.50
10598;BMP180;5346;48.766;8.674;2023-03-09T05:00:37;92135.00;;;5.50
10598;BMP180;5346;48.766;8.674;2023-03-09T05:03:11;92152.00;;;5.60
10598;BMP180;5346;48.766;8.674;2023-03-09T05:05:52;92158.00;;;5.50
10598;BMP180;5346;48.766;8.674;2023-03-09T05:08:24;92161.00;;;5.70
10598;BMP180;5346;48.766;8.674;2023-03-09T05:10:59;92143.00;;;5.70
10598;BMP180;5346;48.766;8.674;2023-03-09T05:13:33;92162.00;;;5.70
10598;BMP180;5346;48.766;8.674;2023-03-09T05:16:08;92155.00;;;5.70
10598;BMP180;5346;48.766;8.674;2023-03-09T05:18:36;92153.00;;;5.70
10598;BMP180;5346;48.766;8.674;2023-03-09T05:21:10;92160.00;;;5.70
10598;BMP180;5346;48.766;8.674;2023-03-09T05:23:45;92181.00;;;5.80
10598;BMP180;5346;48.766;8.674;2023-03-09T05:26:18;92188.00;;;5.70
10598;BMP180;5346;48.766;8.674;2023-03-09T05:28:53;92181.00;;;5.80
10598;BMP180;5346;48.766;8.674;2023-03-09T05:31:28;92180.00;;;5.80
10598;BMP180;5346;48.766;8.674;2023-03-09T05:33:55;92180.00;;;5.80
10598;BMP180;5346;48.766;8.674;2023-03-09T05:36:29;92199.00;;;5.70
10598;BMP180;5346;48.766;8.674;2023-03-09T05:39:04;92194.00;;;5.70
10598;BMP180;5346;48.766;8.674;2023-03-09T05:41:32;92204.00;;;5.80
10598;BMP180;5346;48.766;8.674;2023-03-09T05:44:07;92212.00;;;5.60
10598;BMP180;5346;48.766;8.674;2023-03-09T05:46:34;92203.00;;;5.70
10598;BMP180;5346;48.766;8.674;2023-03-09T05:49:12;92204.00;;;5.70
10598;BMP180;5346;48.766;8.674;2023-03-09T05:51:40;92225.00;;;5.60
10598;BMP180;5346;48.766;8.674;2023-03-09T05:54:08;92237.00;;;5.70
10598;BMP180;5346;48.766;8.674;2023-03-09T05:56:44;92227.00;;;5.70
10598;BMP180;5346;48.766;8.674;2023-03-09T05:59:13;92218.00;;;5.80
10598;BMP180;5346;48.766;8.674;2023-03-09T06:01:47;92242.00;;;5.70
10598;BMP180;5346;48.766;8.674;2023-03-09T06:04:21;92241.00;;;5.80
10598;BMP180;5346;48.766;8.674;2023-03-09T06:06:55;92251.00;;;5.90
10598;BMP180;5346;48.766;8.674;2023-03-09T06:09:29;92240.00;;;5.80
10598;BMP180;5346;48.766;8.674;2023-03-09T06:12:04;92260.00;;;6.10
10598;BMP180;5346;48.766;8.674;2023-03-09T06:14:33;92248.00;;;6.20
10598;BMP180;5346;48.766;8.674;2023-03-09T06:17:07;92270.00;;;6.10
10598;BMP180;5346;48.766;8.674;2023-03-09T06:19:42;92262.00;;;6.10
10598;BMP180;5346;48.766;8.674;2023-03-09T06:22:16;92275.00;;;6.30
10598;BMP180;5346;48.766;8.674;2023-03-09T06:24:43;92256.00;;;6.30
10598;BMP180;5346;48.766;8.674;2023-03-09T06:27:17;92284.00;;;6.30
10598;BMP180;5346;48.766;8.674;2023-03-09T06:29:46;92271.00;;;6.50
10598;BMP180;5346;48.766;8.674;2023-03-09T06:32:20;92284.00;;;6.40
10598;BMP180;5346;48.766;8.674;2023-03-09T06:34:48;92275.00;;;6.60
10598;BMP180;5346;48.766;8.674;2023-03-09T06:37:22;92298.00;;;6.50
10598;BMP180;5346;48.766;8.674;2023-03-09T06:39:50;92315.00;;;6.20
10598;BMP180;5346;48.766;8.674;2023-03-09T06:42:24;92310.00;;;6.20
10598;BMP180;5346;48.766;8.674;2023-03-09T06:44:51;92316.00;;;6.00
10598;BMP180;5346;48.766;8.674;2023-03-09T06:47:28;92313.00;;;5.90
10598;BMP180;5346;48.766;8.674;2023-03-09T06:50:02;92310.00;;;5.90
10598;BMP180;5346;48.766;8.674;2023-03-09T06:52:38;92308.00;;;6.00
10598;BMP180;5346;48.766;8.674;2023-03-09T06:55:06;92317.00;;;6.00
10598;BMP180;5346;48.766;8.674;2023-03-09T06:57:47;92311.00;;;6.10
10598;BMP180;5346;48.766;8.674;2023-03-09T07:00:23;92301.00;;;6.30
10598;BMP180;5346;48.766;8.674;2023-03-09T07:02:57;92315.00;;;6.60
10598;BMP180;5346;48.766;8.674;2023-03-09T07:05:32;92306.00;;;6.80
10598;BMP180;5346;48.766;8.674;2023-03-09T07:08:14;92316.00;;;6.80
10598;BMP180;5346;48.766;8.674;2023-03-09T07:10:48;92327.00;;;6.80
10598;BMP180;5346;48.766;8.674;2023-03-09T07:13:24;92335.00;;;6.90
10598;BMP180;5346;48.766;8.674;2023-03-09T07:16:02;92323.00;;;7.00
10598;BMP180;5346;48.766;8.674;2023-03-09T07:18:36;92324.00;;;7.00
10598;BMP180;5346;48.766;8.674;2023-03-09T07:21:04;92343.00;;;7.10
10598;BMP180;5346;48.766;8.674;2023-03-09T07:23:38;92357.00;;;7.50
10598;BMP180;5346;48.766;8.674;2023-03-09T07:26:06;92355.00;;;7.80
10598;BMP180;5346;48.766;8.674;2023-03-09T07:28:43;92366.00;;;7.90
10598;BMP180;5346;48.766;8.674;2023-03-09T07:31:17;92362.00;;;7.40
10598;BMP180;5346;48.766;8.674;2023-03-09T07:33:48;92376.00;;;7.40
10598;BMP180;5346;48.766;8.674;2023-03-09T07:36:22;92386.00;;;7.40
10598;BMP180;5346;48.766;8.674;2023-03-09T07:38:52;92399.00;;;7.40
10598;BMP180;5346;48.766;8.674;2023-03-09T07:41:29;92395.00;;;7.50
10598;BMP180;5346;48.766;8.674;2023-03-09T07:44:04;92407.00;;;7.60
10598;BMP180;5346;48.766;8.674;2023-03-09T07:46:38;92408.00;;;7.80
10598;BMP180;5346;48.766;8.674;2023-03-09T07:49:19;92417.00;;;8.10
10598;BMP180;5346;48.766;8.674;2023-03-09T07:51:53;92415.00;;;8.70
10598;BMP180;5346;48.766;8.674;2023-03-09T07:54:29;92429.00;;;8.70
10598;BMP180;5346;48.766;8.674;2023-03-09T07:56:57;92434.00;;;9.00
10598;BMP180;5346;48.766;8.674;2023-03-09T07:59:31;92444.00;;;8.70
10598;BMP180;5346;48.766;8.674;2023-03-09T08:01:59;92446.00;;;8.60
10598;BMP180;5346;48.766;8.674;2023-03-09T08:04:33;92466.00;;;8.60
10598;BMP180;5346;48.766;8.674;2023-03-09T08:07:07;92451.00;;;8.40
10598;BMP180;5346;48.766;8.674;2023-03-09T08:09:48;92463.00;;;8.60
10598;BMP180;5346;48.766;8.674;2023-03-09T08:12:22;92468.00;;;8.40
10598;BMP180;5346;48.766;8.674;2023-03-09T08:14:57;92481.00;;;8.30
10598;BMP180;5346;48.766;8.674;2023-03-09T08:17:24;92482.00;;;8.10
10598;BMP180;5346;48.766;8.674;2023-03-09T08:20:01;92490.00;;;8.00
10598;BMP180;5346;48.766;8.674;2023-03-09T08:22:36;92506.00;;;7.80
10598;BMP180;5346;48.766;8.674;2023-03-09T08:25:10;92505.00;;;7.50
10598;BMP180;5346;48.766;8.674;2023-03-09T08:27:45;92516.00;;;7.20
10598;BMP180;5346;48.766;8.674;2023-03-09T08:30:20;92524.00;;;7.10
10598;BMP180;5346;48.766;8.674;2023-03-09T08:32:54;92528.00;;;7.00
10598;BMP180;5346;48.766;8.674;2023-03-09T08:35:30;92542.00;;;6.80
10598;BMP180;5346;48.766;8.674;2023-03-09T08:38:06;92548.00;;;6.70
10598;BMP180;5346;48.766;8.674;2023-03-09T08:40:40;92571.00;;;6.60
10598;BMP180;5346;48.766;8.674;2023-03-09T08:43:11;92577.00;;;6.60
10598;BMP180;5346;48.766;8.674;2023-03-09T08:45:45;92584.00;;;6.30
10598;BMP180;5346;48.766;8.674;2023-03-09T08:48:19;92591.00;;;6.30
10598;BMP180;5346;48.766;8.674;2023-03-09T08:50:53;92596.00;;;6.20
10598;BMP180;5346;48.766;8.674;2023-03-09T08:53:27;92593.00;;;6.20
10598;BMP180;5346;48.766;8.674;2023-03-09T08:55:56;92608.00;;;6.20
10598;BMP180;5346;48.766;8.674;2023-03-09T08:58:30;92603.00;;;6.30
10598;BMP180;5346;48.766;8.674;2023-03-09T09:01:06;92592.00;;;6.50
10598;BMP180;5346;48.766;8.674;2023-03-09T09:03:36;92595.00;;;7.10
10598;BMP180;5346;48.766;8.674;2023-03-09T09:06:14;92596.00;;;7.60
10598;BMP180;5346;48.766;8.674;2023-03-09T09:08:48;92605.00;;;7.40
10598;BMP180;5346;48.766;8.674;2023-03-09T09:11:22;92613.00;;;7.40
10598;BMP180;5346;48.766;8.674;2023-03-09T09:13:56;92601.00;;;7.40
10598;BMP180;5346;48.766;8.674;2023-03-09T09:16:23;92606.00;;;7.30
10598;BMP180;5346;48.766;8.674;2023-03-09T09:18:57;92612.00;;;7.30
10598;BMP180;5346;48.766;8.674;2023-03-09T09:21:24;92606.00;;;7.40
10598;BMP180;5346;48.766;8.674;2023-03-09T09:23:58;92599.00;;;7.90
10598;BMP180;5346;48.766;8.674;2023-03-09T09:26:32;92615.00;;;7.90
10598;BMP180;5346;48.766;8.674;2023-03-09T09:29:06;92613.00;;;7.60
10598;BMP180;5346;48.766;8.674;2023-03-09T09:31:33;92607.00;;;7.60
10598;BMP180;5346;48.766;8.674;2023-03-09T09:34:07;92624.00;;;7.40
10598;BMP180;5346;48.766;8.674;2023-03-09T09:36:34;92628.00;;;7.20
10598;BMP180;5346;48.766;8.674;2023-03-09T09:39:11;92615.00;;;7.40
10598;BMP180;5346;48.766;8.674;2023-03-09T09:41:51;92612.00;;;7.50
10598;BMP180;5346;48.766;8.674;2023-03-09T09:44:38;92615.00;;;7.70
10598;BMP180;5346;48.766;8.674;2023-03-09T09:47:21;92617.00;;;8.00
10598;BMP180;5346;48.766;8.674;2023-03-09T09:49:52;92624.00;;;7.60
10598;BMP180;5346;48.766;8.674;2023-03-09T09:52:50;92630.00;;;7.50
10598;BMP180;5346;48.766;8.674;2023-03-09T09:55:30;92648.00;;;7.40
10598;BMP180;5346;48.766;8.674;2023-03-09T09:58:53;92664.00;;;7.40
10598;BMP180;5346;48.766;8.674;2023-03-09T10:04:13;92668.00;;;7.10
10598;BMP180;5346;48.766;8.674;2023-03-09T10:06:57;92668.00;;;7.30
10598;BMP180;5346;48.766;8.674;2023-03-09T10:09:35;92668.00;;;7.30
10598;BMP180;5346;48.766;8.674;2023-03-09T10:12:20;92665.00;;;7.30
10598;BMP180;5346;48.766;8.674;2023-03-09T10:18:01;92675.00;;;7.20
10598;BMP180;5346;48.766;8.674;2023-03-09T10:20:52;92659.00;;;7.40
10598;BMP180;5346;48.766;8.674;2023-03-09T10:23:29;92659.00;;;7.80
10598;BMP180;5346;48.766;8.674;2023-03-09T10:28:57;92681.00;;;8.20
10598;BMP180;5346;48.766;8.674;2023-03-09T10:31:43;92684.00;;;8.00
10598;BMP180;5346;48.766;8.674;2023-03-09T10:34:23;92677.00;;;8.00
10598;BMP180;5346;48.766;8.674;2023-03-09T10:37:03;92688.00;;;8.00
10598;BMP180;5346;48.766;8.674;2023-03-09T10:39:44;92694.00;;;7.80
10598;BMP180;5346;48.766;8.674;2023-03-09T10:42:24;92694.00;;;7.60
10598;BMP180;5346;48.766;8.674;2023-03-09T10:50:29;92711.00;;;7.50
10598;BMP180;5346;48.766;8.674;2023-03-09T10:52:57;92693.00;;;7.70
10598;BMP180;5346;48.766;8.674;2023-03-09T10:55:36;92696.00;;;8.20
10598;BMP180;5346;48.766;8.674;2023-03-09T10:58:18;92705.00;;;8.20
10598;BMP180;5346;48.766;8.674;2023-03-09T11:01:04;92711.00;;;7.90
10598;BMP180;5346;48.766;8.674;2023-03-09T11:03:41;92702.00;;;7.90
10598;BMP180;5346;48.766;8.674;2023-03-09T11:06:29;92705.00;;;7.60
10598;BMP180;5346;48.766;8.674;2023-03-09T11:09:06;92697.00;;;7.60
10598;BMP180;5346;48.766;8.674;2023-03-09T11:11:46;92690.00;;;8.00
10598;BMP180;5346;48.766;8.674;2023-03-09T11:14:40;92671.00;;;8.70
10598;BMP180;5346;48.766;8.674;2023-03-09T11:17:35;92676.00;;;8.50
10598;BMP180;5346;48.766;8.674;2023-03-09T11:22:58;92687.00;;;8.80
10598;BMP180;5346;48.766;8.674;2023-03-09T11:26:08;92691.00;;;9.50
10598;BMP180;5346;48.766;8.674;2023-03-09T11:31:48;92704.00;;;8.80
10598;BMP180;5346;48.766;8.674;2023-03-09T11:34:32;92696.00;;;8.70
10598;BMP180;5346;48.766;8.674;2023-03-09T11:37:19;92692.00;;;8.70
10598;BMP180;5346;48.766;8.674;2023-03-09T11:39:59;92693.00;;;8.60
10598;BMP180;5346;48.766;8.674;2023-03-09T11:45:24;92681.00;;;8.30
10598;BMP180;5346;48.766;8.674;2023-03-09T11:53:54;92653.00;;;9.70
10598;BMP180;5346;48.766;8.674;2023-03-09T11:56:36;92665.00;;;10.40
10598;BMP180;5346;48.766;8.674;2023-03-09T11:59:25;92639.00;;;10.20
10598;BMP180;5346;48.766;8.674;2023-03-09T12:02:19;92643.00;;;11.30
10598;BMP180;5346;48.766;8.674;2023-03-09T12:04:55;92633.00;;;11.70
10598;BMP180;5346;48.766;8.674;2023-03-09T12:07:32;92624.00;;;12.00
10598;BMP180;5346;48.766;8.674;2023-03-09T12:10:41;92639.00;;;12.50
10598;BMP180;5346;48.766;8.674;2023-03-09T12:13:23;92623.00;;;11.50
10598;BMP180;5346;48.766;8.674;2023-03-09T12:16:02;92617.00;;;12.10
10598;BMP180;5346;48.766;8.674;2023-03-09T12:18:40;92618.00;;;11.40
10598;BMP180;5346;48.766;8.674;2023-03-09T12:21:17;92627.00;;;12.70
10598;BMP180;5346;48.766;8.674;2023-03-09T12:23:54;92620.00;;;11.90
10598;BMP180;5346;48.766;8.674;2023-03-09T12:26:30;92612.00;;;11.80
10598;BMP180;5346;48.766;8.674;2023-03-09T12:32:52;92606.00;;;13.40
10598;BMP180;5346;48.766;8.674;2023-03-09T12:35:03;92616.00;;;14.00
10598;BMP180;5346;48.766;8.674;2023-03-09T12:37:41;92599.00;;;12.00
10598;BMP180;5346;48.766;8.674;2023-03-09T12:45:49;92615.00;;;12.90
10598;BMP180;5346;48.766;8.674;2023-03-09T12:48:29;92607.00;;;12.10
10598;BMP180;5346;48.766;8.674;2023-03-09T12:51:12;92598.00;;;12.40
10598;BMP180;5346;48.766;8.674;2023-03-09T12:54:00;92632.00;;;12.30
10598;BMP180;5346;48.766;8.674;2023-03-09T12:56:35;92634.00;;;12.10
10598;BMP180;5346;48.766;8.674;2023-03-09T12:59:09;92641.00;;;11.10
10598;BMP180;5346;48.766;8.674;2023-03-09T13:01:42;92630.00;;;10.90
10598;BMP180;5346;48.766;8.674;2023-03-09T13:04:19;92640.00;;;10.90
10598;BMP180;5346;48.766;8.674;2023-03-09T13:07:00;92646.00;;;10.30
10598;BMP180;5346;48.766;8.674;2023-03-09T13:09:42;92639.00;;;10.40
10598;BMP180;5346;48.766;8.674;2023-03-09T13:12:35;92649.00;;;10.20
10598;BMP180;5346;48.766;8.674;2023-03-09T13:15:25;92672.00;;;9.70
10598;BMP180;5346;48.766;8.674;2023-03-09T13:18:24;92684.00;;;8.60
10598;BMP180;5346;48.766;8.674;2023-03-09T13:21:37;92667.00;;;8.20
10598;BMP180;5346;48.766;8.674;2023-03-09T13:24:16;92694.00;;;7.80
10598;BMP180;5346;48.766;8.674;2023-03-09T13:26:47;92670.00;;;7.90
10598;BMP180;5346;48.766;8.674;2023-03-09T13:29:26;92674.00;;;8.80
10598;BMP180;5346;48.766;8.674;2023-03-09T13:31:55;92660.00;;;9.40
10598;BMP180;5346;48.766;8.674;2023-03-09T13:34:32;92670.00;;;9.70
10598;BMP180;5346;48.766;8.674;2023-03-09T13:37:14;92632.00;;;9.80
10598;BMP180;5346;48.766;8.674;2023-03-09T13:40:31;92669.00;;;10.30
10598;BMP180;5346;48.766;8.674;2023-03-09T13:43:14;92633.00;;;11.20
10598;BMP180;5346;48.766;8.674;2023-03-09T13:46:09;92633.00;;;11.50
10598;BMP180;5346;48.766;8.674;2023-03-09T13:48:48;92667.00;;;11.10
10598;BMP180;5346;48.766;8.674;2023-03-09T13:54:03;92621.00;;;9.90
10598;BMP180;5346;48.766;8.674;2023-03-09T13:56:37;92640.00;;;11.40
10598;BMP180;5346;48.766;8.674;2023-03-09T13:59:20;92663.00;;;11.10
10598;BMP180;5346;48.766;8.674;2023-03-09T14:02:01;92660.00;;;9.80
10598;BMP180;5346;48.766;8.674;2023-03-09T14:04:29;92663.00;;;9.60
10598;BMP180;5346;48.766;8.674;2023-03-09T14:07:03;92659.00;;;9.30
10598;BMP180;5346;48.766;8.674;2023-03-09T14:09:55;92676.00;;;9.20
10598;BMP180;5346;48.766;8.674;2023-03-09T14:12:38;92677.00;;;8.90
10598;BMP180;5346;48.766;8.674;2023-03-09T14:15:15;92630.00;;;9.20
10598;BMP180;5346;48.766;8.674;2023-03-09T14:17:53;92642.00;;;9.60
10598;BMP180;5346;48.766;8.674;2023-03-09T14:20:37;92645.00;;;9.90
10598;BMP180;5346;48.766;8.674;2023-03-09T14:23:17;92627.00;;;10.60
10598;BMP180;5346;48.766;8.674;2023-03-09T14:25:44;92635.00;;;10.40
10598;BMP180;5346;48.766;8.674;2023-03-09T14:28:32;92648.00;;;10.20
10598;BMP180;5346;48.766;8.674;2023-03-09T14:31:21;92662.00;;;9.10
10598;BMP180;5346;48.766;8.674;2023-03-09T14:33:57;92665.00;;;8.60
10598;BMP180;5346;48.766;8.674;2023-03-09T14:36:38;92659.00;;;8.70
10598;BMP180;5346;48.766;8.674;2023-03-09T14:39:28;92655.00;;;8.40
10598;BMP180;5346;48.766;8.674;2023-03-09T14:47:36;92651.00;;;9.30
10598;BMP180;5346;48.766;8.674;2023-03-09T14:50:15;92635.00;;;8.70
10598;BMP180;5346;48.766;8.674;2023-03-09T14:52:50;92655.00;;;8.80
10598;BMP180;5346;48.766;8.674;2023-03-09T14:55:20;92651.00;;;8.70
10598;BMP180;5346;48.766;8.674;2023-03-09T14:57:48;92640.00;;;8.60
10598;BMP180;5346;48.766;8.674;2023-03-09T15:00:24;92660.00;;;8.50
10598;BMP180;5346;48.766;8.674;2023-03-09T15:02:53;92659.00;;;8.40
10598;BMP180;5346;48.766;8.674;2023-03-09T15:05:27;92649.00;;;8.30
10598;BMP180;5346;48.766;8.674;2023-03-09T15:07:55;92651.00;;;8.40
10598;BMP180;5346;48.766;8.674;2023-03-09T15:10:29;92655.00;;;8.60
10598;BMP180;5346;48.766;8.674;2023-03-09T15:12:59;92649.00;;;8.40
10598;BMP180;5346;48.766;8.674;2023-03-09T15:15:38;92650.00;;;8.60
10598;BMP180;5346;48.766;8.674;2023-03-09T15:18:12;92629.00;;;8.60
10598;BMP180;5346;48.766;8.674;2023-03-09T15:20:48;92630.00;;;8.80
10598;BMP180;5346;48.766;8.674;2023-03-09T15:23:23;92627.00;;;8.90
10598;BMP180;5346;48.766;8.674;2023-03-09T15:25:57;92635.00;;;9.00
10598;BMP180;5346;48.766;8.674;2023-03-09T15:28:32;92638.00;;;8.80
10598;BMP180;5346;48.766;8.674;2023-03-09T15:31:10;92631.00;;;9.00
10598;BMP180;5346;48.766;8.674;2023-03-09T15:33:49;92638.00;;;9.10
10598;BMP180;5346;48.766;8.674;2023-03-09T15:36:22;92626.00;;;9.10
10598;BMP180;5346;48.766;8.674;2023-03-09T15:38:50;92624.00;;;9.00
10598;BMP180;5346;48.766;8.674;2023-03-09T15:41:24;92616.00;;;8.90
10598;BMP180;5346;48.766;8.674;2023-03-09T15:43:58;92629.00;;;9.00
10598;BMP180;5346;48.766;8.674;2023-03-09T15:46:32;92633.00;;;8.90
10598;BMP180;5346;48.766;8.674;2023-03-09T15:49:04;92632.00;;;8.90
10598;BMP180;5346;48.766;8.674;2023-03-09T15:51:39;92631.00;;;8.80
10598;BMP180;5346;48.766;8.674;2023-03-09T15:54:13;92627.00;;;8.90
10598;BMP180;5346;48.766;8.674;2023-03-09T15:56:47;92618.00;;;8.80
10598;BMP180;5346;48.766;8.674;2023-03-09T15:59:17;92626.00;;;8.90
10598;BMP180;5346;48.766;8.674;2023-03-09T16:01:50;92614.00;;;8.70
10598;BMP180;5346;48.766;8.674;2023-03-09T16:04:26;92605.00;;;8.60
10598;BMP180;5346;48.766;8.674;2023-03-09T16:07:01;92608.00;;;8.70
10598;BMP180;5346;48.766;8.674;2023-03-09T16:09:36;92600.00;;;8.60
10598;BMP180;5346;48.766;8.674;2023-03-09T16:12:10;92588.00;;;8.50
10598;BMP180;5346;48.766;8.674;2023-03-09T16:14:38;92597.00;;;8.50
10598;BMP180;5346;48.766;8.674;2023-03-09T16:17:12;92588.00;;;8.30
10598;BMP180;5346;48.766;8.674;2023-03-09T16:19:39;92583.00;;;8.50